sensor_id;sensor_type;location;lat;lon;timestamp;P1;durP1;ratioP1;P2;durP2;ratioP2
71176;SDS011;58877;51.992;4.504;2022-12-19T00:01:11;19.25;;;19.06;;
71176;SDS011;58877;51.992;4.504;2022-12-19T00:03:58;18.93;;;18.62;;
71176;SDS011;58877;51.992;4.504;2022-12-19T00:06:36;18.65;;;18.20;;
71176;SDS011;58877;51.992;4.504;2022-12-19T00:09:03;19.23;;;18.83;;
71176;SDS011;58877;51.992;4.504;2022-12-19T00:11:30;18.80;;;18.52;;
71176;SDS011;58877;51.992;4.504;2022-12-19T00:13:57;18.99;;;18.54;;
71176;SDS011;58877;51.992;4.504;2022-12-19T00:16:24;19.32;;;18.94;;
71176;SDS011;58877;51.992;4.504;2022-12-19T00:18:52;19.05;;;18.76;;
71176;SDS011;58877;51.992;4.504;2022-12-19T00:21:20;19.72;;;19.41;;
71176;SDS011;58877;51.992;4.504;2022-12-19T00:23:48;19.09;;;18.80;;
71176;SDS011;58877;51.992;4.504;2022-12-19T00:26:18;19.03;;;18.81;;
71176;SDS011;58877;51.992;4.504;2022-12-19T00:28:50;18.78;;;18.63;;
71176;SDS011;58877;51.992;4.504;2022-12-19T00:31:21;19.17;;;18.82;;
71176;SDS011;58877;51.992;4.504;2022-12-19T00:33:47;19.08;;;18.82;;
71176;SDS011;58877;51.992;4.504;2022-12-19T00:36:17;18.16;;;17.85;;
71176;SDS011;58877;51.992;4.504;2022-12-19T00:38:45;17.95;;;17.72;;
71176;SDS011;58877;51.992;4.504;2022-12-19T00:41:13;18.31;;;17.88;;
71176;SDS011;58877;51.992;4.504;2022-12-19T00:43:41;17.86;;;17.41;;
71176;SDS011;58877;51.992;4.504;2022-12-19T00:46:12;18.76;;;18.39;;
71176;SDS011;58877;51.992;4.504;2022-12-19T00:48:39;18.23;;;17.73;;
71176;SDS011;58877;51.992;4.504;2022-12-19T00:51:07;18.04;;;17.48;;
71176;SDS011;58877;51.992;4.504;2022-12-19T00:53:36;18.02;;;17.64;;
71176;SDS011;58877;51.992;4.504;2022-12-19T00:56:06;18.30;;;18.04;;
71176;SDS011;58877;51.992;4.504;2022-12-19T00:58:38;17.99;;;17.77;;
71176;SDS011;58877;51.992;4.504;2022-12-19T01:01:26;17.85;;;17.54;;
71176;SDS011;58877;51.992;4.504;2022-12-19T01:04:11;17.35;;;17.08;;
71176;SDS011;58877;51.992;4.504;2022-12-19T01:06:38;17.47;;;17.27;;
71176;SDS011;58877;51.992;4.504;2022-12-19T01:09:09;18.15;;;17.93;;
71176;SDS011;58877;51.992;4.504;2022-12-19T01:11:36;17.48;;;17.23;;
71176;SDS011;58877;51.992;4.504;2022-12-19T01:14:20;18.49;;;18.12;;
71176;SDS011;58877;51.992;4.504;2022-12-19T01:16:46;17.08;;;16.86;;
71176;SDS011;58877;51.992;4.504;2022-12-19T01:19:12;17.61;;;17.46;;
71176;SDS011;58877;51.992;4.504;2022-12-19T01:21:40;17.48;;;17.29;;
71176;SDS011;58877;51.992;4.504;2022-12-19T01:24:09;17.55;;;17.35;;
71176;SDS011;58877;51.992;4.504;2022-12-19T01:26:35;17.28;;;17.08;;
71176;SDS011;58877;51.992;4.504;2022-12-19T01:29:02;17.92;;;17.66;;
71176;SDS011;58877;51.992;4.504;2022-12-19T01:31:29;17.74;;;17.57;;
71176;SDS011;58877;51.992;4.504;2022-12-19T01:33:55;17.75;;;17.50;;
71176;SDS011;58877;51.992;4.504;2022-12-19T01:36:23;17.34;;;17.11;;
71176;SDS011;58877;51.992;4.504;2022-12-19T01:38:49;17.93;;;17.66;;
71176;SDS011;58877;51.992;4.504;2022-12-19T01:41:15;17.25;;;16.97;;
71176;SDS011;58877;51.992;4.504;2022-12-19T01:43:57;17.53;;;17.18;;
71176;SDS011;58877;51.992;4.504;2022-12-19T01:46:34;16.54;;;16.27;;
71176;SDS011;58877;51.992;4.504;2022-12-19T01:49:15;17.17;;;16.88;;
71176;SDS011;58877;51.992;4.504;2022-12-19T01:51:54;16.31;;;16.01;;
71176;SDS011;58877;51.992;4.504;2022-12-19T01:54:25;17.23;;;17.05;;
71176;SDS011;58877;51.992;4.504;2022-12-19T01:57:00;17.16;;;17.07;;
71176;SDS011;58877;51.992;4.504;2022-12-19T01:59:36;17.18;;;16.99;;
71176;SDS011;58877;51.992;4.504;2022-12-19T02:02:12;17.41;;;17.22;;
71176;SDS011;58877;51.992;4.504;2022-12-19T02:04:45;17.85;;;17.56;;
71176;SDS011;58877;51.992;4.504;2022-12-19T02:07:12;17.26;;;16.92;;
71176;SDS011;58877;51.992;4.504;2022-12-19T02:09:45;16.47;;;16.25;;
71176;SDS011;58877;51.992;4.504;2022-12-19T02:12:13;17.07;;;16.84;;
71176;SDS011;58877;51.992;4.504;2022-12-19T02:14:39;17.10;;;16.95;;
71176;SDS011;58877;51.992;4.504;2022-12-19T02:17:29;16.31;;;16.03;;
71176;SDS011;58877;51.992;4.504;2022-12-19T02:30:56;15.44;;;15.33;;
71176;SDS011;58877;51.992;4.504;2022-12-19T02:33:44;15.26;;;15.09;;
71176;SDS011;58877;51.992;4.504;2022-12-19T02:36:28;14.14;;;14.08;;
71176;SDS011;58877;51.992;4.504;2022-12-19T02:41:45;13.61;;;13.46;;
71176;SDS011;58877;51.992;4.504;2022-12-19T02:44:18;14.05;;;13.84;;
71176;SDS011;58877;51.992;4.504;2022-12-19T02:46:50;13.16;;;13.06;;
71176;SDS011;58877;51.992;4.504;2022-12-19T02:49:17;13.19;;;13.07;;
71176;SDS011;58877;51.992;4.504;2022-12-19T02:51:43;13.18;;;12.97;;
71176;SDS011;58877;51.992;4.504;2022-12-19T02:54:08;12.64;;;12.51;;
71176;SDS011;58877;51.992;4.504;2022-12-19T02:56:48;12.70;;;12.63;;
71176;SDS011;58877;51.992;4.504;2022-12-19T03:04:56;11.55;;;11.51;;
71176;SDS011;58877;51.992;4.504;2022-12-19T03:10:23;10.91;;;10.83;;
71176;SDS011;58877;51.992;4.504;2022-12-19T03:13:07;10.25;;;10.16;;
71176;SDS011;58877;51.992;4.504;2022-12-19T03:15:58;10.50;;;10.41;;
71176;SDS011;58877;51.992;4.504;2022-12-19T03:18:26;10.05;;;10.00;;
71176;SDS011;58877;51.992;4.504;2022-12-19T03:23:39;9.77;;;9.74;;
71176;SDS011;58877;51.992;4.504;2022-12-19T03:26:11;10.21;;;10.11;;
71176;SDS011;58877;51.992;4.504;2022-12-19T03:28:51;9.85;;;9.80;;
71176;SDS011;58877;51.992;4.504;2022-12-19T03:31:20;10.13;;;10.06;;
71176;SDS011;58877;51.992;4.504;2022-12-19T03:33:54;10.20;;;10.10;;
71176;SDS011;58877;51.992;4.504;2022-12-19T03:36:32;9.39;;;9.34;;
71176;SDS011;58877;51.992;4.504;2022-12-19T03:39:07;10.01;;;10.01;;
71176;SDS011;58877;51.992;4.504;2022-12-19T03:41:36;9.15;;;9.15;;
71176;SDS011;58877;51.992;4.504;2022-12-19T03:44:24;8.77;;;8.70;;
71176;SDS011;58877;51.992;4.504;2022-12-19T03:46:57;9.00;;;8.93;;
71176;SDS011;58877;51.992;4.504;2022-12-19T03:49:34;8.13;;;8.07;;
71176;SDS011;58877;51.992;4.504;2022-12-19T03:54:49;8.08;;;8.08;;
71176;SDS011;58877;51.992;4.504;2022-12-19T03:57:38;8.82;;;8.75;;
71176;SDS011;58877;51.992;4.504;2022-12-19T04:00:11;8.49;;;8.46;;
71176;SDS011;58877;51.992;4.504;2022-12-19T04:02:41;8.45;;;8.45;;
71176;SDS011;58877;51.992;4.504;2022-12-19T04:05:13;8.94;;;8.94;;
71176;SDS011;58877;51.992;4.504;2022-12-19T04:07:44;8.90;;;8.90;;
71176;SDS011;58877;51.992;4.504;2022-12-19T04:10:13;9.00;;;8.98;;
71176;SDS011;58877;51.992;4.504;2022-12-19T04:12:47;8.65;;;8.64;;
71176;SDS011;58877;51.992;4.504;2022-12-19T04:18:11;8.89;;;8.87;;
71176;SDS011;58877;51.992;4.504;2022-12-19T04:20:38;8.44;;;8.44;;
71176;SDS011;58877;51.992;4.504;2022-12-19T04:23:22;7.97;;;7.97;;
71176;SDS011;58877;51.992;4.504;2022-12-19T04:25:58;7.90;;;7.90;;
71176;SDS011;58877;51.992;4.504;2022-12-19T04:28:32;7.65;;;7.65;;
71176;SDS011;58877;51.992;4.504;2022-12-19T04:31:20;7.40;;;7.40;;
71176;SDS011;58877;51.992;4.504;2022-12-19T04:33:47;7.04;;;7.04;;
71176;SDS011;58877;51.992;4.504;2022-12-19T04:36:13;7.54;;;7.54;;
71176;SDS011;58877;51.992;4.504;2022-12-19T04:38:39;7.07;;;7.07;;
71176;SDS011;58877;51.992;4.504;2022-12-19T04:41:05;6.71;;;6.71;;
71176;SDS011;58877;51.992;4.504;2022-12-19T04:43:31;6.81;;;6.76;;
71176;SDS011;58877;51.992;4.504;2022-12-19T04:45:57;6.32;;;6.26;;
71176;SDS011;58877;51.992;4.504;2022-12-19T04:48:22;6.54;;;6.53;;
71176;SDS011;58877;51.992;4.504;2022-12-19T04:50:48;6.49;;;6.49;;
71176;SDS011;58877;51.992;4.504;2022-12-19T04:53:13;6.56;;;6.56;;
71176;SDS011;58877;51.992;4.504;2022-12-19T04:55:39;6.57;;;6.57;;
71176;SDS011;58877;51.992;4.504;2022-12-19T04:58:05;6.73;;;6.73;;
71176;SDS011;58877;51.992;4.504;2022-12-19T05:00:32;6.31;;;6.31;;
71176;SDS011;58877;51.992;4.504;2022-12-19T05:02:58;6.87;;;6.87;;
71176;SDS011;58877;51.992;4.504;2022-12-19T05:05:24;6.68;;;6.68;;
71176;SDS011;58877;51.992;4.504;2022-12-19T05:07:53;6.78;;;6.77;;
71176;SDS011;58877;51.992;4.504;2022-12-19T05:10:19;6.92;;;6.92;;
71176;SDS011;58877;51.992;4.504;2022-12-19T05:12:44;6.91;;;6.91;;
71176;SDS011;58877;51.992;4.504;2022-12-19T05:15:10;6.99;;;6.99;;
71176;SDS011;58877;51.992;4.504;2022-12-19T05:17:36;6.85;;;6.85;;
71176;SDS011;58877;51.992;4.504;2022-12-19T05:20:01;7.05;;;7.02;;
71176;SDS011;58877;51.992;4.504;2022-12-19T05:22:28;7.32;;;7.31;;
71176;SDS011;58877;51.992;4.504;2022-12-19T05:24:53;7.33;;;7.33;;
71176;SDS011;58877;51.992;4.504;2022-12-19T05:27:18;7.19;;;7.19;;
71176;SDS011;58877;51.992;4.504;2022-12-19T05:29:44;7.66;;;7.65;;
71176;SDS011;58877;51.992;4.504;2022-12-19T05:32:09;7.26;;;7.26;;
71176;SDS011;58877;51.992;4.504;2022-12-19T05:34:35;7.54;;;7.53;;
71176;SDS011;58877;51.992;4.504;2022-12-19T05:37:01;7.53;;;7.53;;
71176;SDS011;58877;51.992;4.504;2022-12-19T05:39:27;7.78;;;7.76;;
71176;SDS011;58877;51.992;4.504;2022-12-19T05:41:53;7.87;;;7.76;;
71176;SDS011;58877;51.992;4.504;2022-12-19T05:44:19;8.42;;;8.37;;
71176;SDS011;58877;51.992;4.504;2022-12-19T05:46:44;7.60;;;7.60;;
71176;SDS011;58877;51.992;4.504;2022-12-19T05:49:10;8.45;;;8.45;;
71176;SDS011;58877;51.992;4.504;2022-12-19T05:51:36;8.23;;;8.23;;
71176;SDS011;58877;51.992;4.504;2022-12-19T05:54:01;8.18;;;8.18;;
71176;SDS011;58877;51.992;4.504;2022-12-19T05:56:27;7.74;;;7.74;;
71176;SDS011;58877;51.992;4.504;2022-12-19T05:58:53;7.88;;;7.87;;
71176;SDS011;58877;51.992;4.504;2022-12-19T06:01:21;8.13;;;8.09;;
71176;SDS011;58877;51.992;4.504;2022-12-19T06:03:49;8.00;;;7.95;;
71176;SDS011;58877;51.992;4.504;2022-12-19T06:06:18;8.00;;;7.90;;
71176;SDS011;58877;51.992;4.504;2022-12-19T06:08:46;7.68;;;7.64;;
71176;SDS011;58877;51.992;4.504;2022-12-19T06:11:12;7.72;;;7.72;;
71176;SDS011;58877;51.992;4.504;2022-12-19T06:13:39;7.49;;;7.48;;
71176;SDS011;58877;51.992;4.504;2022-12-19T06:16:08;7.69;;;7.67;;
71176;SDS011;58877;51.992;4.504;2022-12-19T06:18:41;7.40;;;7.38;;
71176;SDS011;58877;51.992;4.504;2022-12-19T06:21:12;6.85;;;6.83;;
71176;SDS011;58877;51.992;4.504;2022-12-19T06:23:43;7.49;;;7.43;;
71176;SDS011;58877;51.992;4.504;2022-12-19T06:26:11;8.05;;;8.04;;
71176;SDS011;58877;51.992;4.504;2022-12-19T06:28:38;8.23;;;8.21;;
71176;SDS011;58877;51.992;4.504;2022-12-19T06:31:04;7.91;;;7.88;;
71176;SDS011;58877;51.992;4.504;2022-12-19T06:33:30;7.87;;;7.77;;
71176;SDS011;58877;51.992;4.504;2022-12-19T06:35:58;7.46;;;7.43;;
71176;SDS011;58877;51.992;4.504;2022-12-19T06:38:25;7.36;;;7.36;;
71176;SDS011;58877;51.992;4.504;2022-12-19T06:40:52;7.53;;;7.48;;
71176;SDS011;58877;51.992;4.504;2022-12-19T06:43:37;7.10;;;7.04;;
71176;SDS011;58877;51.992;4.504;2022-12-19T06:46:03;7.24;;;7.20;;
71176;SDS011;58877;51.992;4.504;2022-12-19T06:48:29;7.36;;;7.29;;
71176;SDS011;58877;51.992;4.504;2022-12-19T06:50:56;7.45;;;7.43;;
71176;SDS011;58877;51.992;4.504;2022-12-19T06:53:22;7.00;;;6.95;;
71176;SDS011;58877;51.992;4.504;2022-12-19T06:55:48;7.00;;;6.95;;
71176;SDS011;58877;51.992;4.504;2022-12-19T06:58:17;7.04;;;7.04;;
71176;SDS011;58877;51.992;4.504;2022-12-19T07:00:43;7.04;;;6.98;;
71176;SDS011;58877;51.992;4.504;2022-12-19T07:03:10;6.60;;;6.59;;
71176;SDS011;58877;51.992;4.504;2022-12-19T07:05:40;7.22;;;7.19;;
71176;SDS011;58877;51.992;4.504;2022-12-19T07:08:07;6.80;;;6.69;;
71176;SDS011;58877;51.992;4.504;2022-12-19T07:10:43;7.11;;;7.06;;
71176;SDS011;58877;51.992;4.504;2022-12-19T07:13:09;7.01;;;7.00;;
71176;SDS011;58877;51.992;4.504;2022-12-19T07:15:35;6.80;;;6.80;;
71176;SDS011;58877;51.992;4.504;2022-12-19T07:18:03;6.44;;;6.44;;
71176;SDS011;58877;51.992;4.504;2022-12-19T07:20:33;7.32;;;7.32;;
71176;SDS011;58877;51.992;4.504;2022-12-19T07:23:02;6.53;;;6.52;;
71176;SDS011;58877;51.992;4.504;2022-12-19T07:25:30;6.13;;;6.11;;
71176;SDS011;58877;51.992;4.504;2022-12-19T07:27:55;5.60;;;5.60;;
71176;SDS011;58877;51.992;4.504;2022-12-19T07:30:21;6.39;;;6.38;;
71176;SDS011;58877;51.992;4.504;2022-12-19T07:32:47;5.91;;;5.91;;
71176;SDS011;58877;51.992;4.504;2022-12-19T07:35:12;6.06;;;6.06;;
71176;SDS011;58877;51.992;4.504;2022-12-19T07:37:38;6.47;;;6.47;;
71176;SDS011;58877;51.992;4.504;2022-12-19T07:40:09;6.43;;;6.42;;
71176;SDS011;58877;51.992;4.504;2022-12-19T07:42:35;6.64;;;6.56;;
71176;SDS011;58877;51.992;4.504;2022-12-19T07:45:01;6.45;;;6.35;;
71176;SDS011;58877;51.992;4.504;2022-12-19T07:47:27;6.08;;;6.01;;
71176;SDS011;58877;51.992;4.504;2022-12-19T07:49:54;6.86;;;6.81;;
71176;SDS011;58877;51.992;4.504;2022-12-19T07:52:20;6.09;;;6.09;;
71176;SDS011;58877;51.992;4.504;2022-12-19T07:54:45;6.06;;;6.06;;
71176;SDS011;58877;51.992;4.504;2022-12-19T07:57:11;6.20;;;6.20;;
71176;SDS011;58877;51.992;4.504;2022-12-19T07:59:36;6.14;;;6.14;;
71176;SDS011;58877;51.992;4.504;2022-12-19T08:02:02;5.99;;;5.99;;
71176;SDS011;58877;51.992;4.504;2022-12-19T08:04:28;5.69;;;5.69;;
71176;SDS011;58877;51.992;4.504;2022-12-19T08:06:53;5.97;;;5.94;;
71176;SDS011;58877;51.992;4.504;2022-12-19T08:09:19;5.83;;;5.82;;
71176;SDS011;58877;51.992;4.504;2022-12-19T08:11:46;6.25;;;6.25;;
71176;SDS011;58877;51.992;4.504;2022-12-19T08:14:11;6.00;;;5.99;;
71176;SDS011;58877;51.992;4.504;2022-12-19T08:16:37;6.24;;;6.21;;
71176;SDS011;58877;51.992;4.504;2022-12-19T08:19:03;6.05;;;6.05;;
71176;SDS011;58877;51.992;4.504;2022-12-19T08:21:28;6.24;;;6.20;;
71176;SDS011;58877;51.992;4.504;2022-12-19T08:23:54;6.20;;;6.17;;
71176;SDS011;58877;51.992;4.504;2022-12-19T08:26:20;6.31;;;6.29;;
71176;SDS011;58877;51.992;4.504;2022-12-19T08:28:54;6.17;;;6.12;;
71176;SDS011;58877;51.992;4.504;2022-12-19T08:31:21;6.52;;;6.50;;
71176;SDS011;58877;51.992;4.504;2022-12-19T08:33:50;6.25;;;6.25;;
71176;SDS011;58877;51.992;4.504;2022-12-19T08:36:20;5.65;;;5.65;;
71176;SDS011;58877;51.992;4.504;2022-12-19T08:38:48;5.97;;;5.97;;
71176;SDS011;58877;51.992;4.504;2022-12-19T08:41:14;5.80;;;5.80;;
71176;SDS011;58877;51.992;4.504;2022-12-19T08:43:41;5.86;;;5.86;;
71176;SDS011;58877;51.992;4.504;2022-12-19T08:46:07;5.53;;;5.51;;
71176;SDS011;58877;51.992;4.504;2022-12-19T08:48:34;5.51;;;5.51;;
71176;SDS011;58877;51.992;4.504;2022-12-19T08:51:04;5.68;;;5.68;;
71176;SDS011;58877;51.992;4.504;2022-12-19T08:53:32;6.12;;;6.09;;
71176;SDS011;58877;51.992;4.504;2022-12-19T08:56:01;5.53;;;5.51;;
71176;SDS011;58877;51.992;4.504;2022-12-19T08:58:31;5.56;;;5.56;;
71176;SDS011;58877;51.992;4.504;2022-12-19T09:00:58;5.98;;;5.94;;
71176;SDS011;58877;51.992;4.504;2022-12-19T09:03:30;5.64;;;5.63;;
71176;SDS011;58877;51.992;4.504;2022-12-19T09:05:57;5.21;;;5.19;;
71176;SDS011;58877;51.992;4.504;2022-12-19T09:08:25;5.46;;;5.44;;
71176;SDS011;58877;51.992;4.504;2022-12-19T09:10:58;5.86;;;5.83;;
71176;SDS011;58877;51.992;4.504;2022-12-19T09:13:35;5.55;;;5.51;;
71176;SDS011;58877;51.992;4.504;2022-12-19T09:18:38;5.76;;;5.76;;
71176;SDS011;58877;51.992;4.504;2022-12-19T09:21:04;5.35;;;5.35;;
71176;SDS011;58877;51.992;4.504;2022-12-19T09:23:30;5.57;;;5.57;;
71176;SDS011;58877;51.992;4.504;2022-12-19T09:26:00;5.84;;;5.84;;
71176;SDS011;58877;51.992;4.504;2022-12-19T09:28:28;5.52;;;5.48;;
71176;SDS011;58877;51.992;4.504;2022-12-19T09:31:01;5.54;;;5.52;;
71176;SDS011;58877;51.992;4.504;2022-12-19T09:33:33;5.57;;;5.57;;
71176;SDS011;58877;51.992;4.504;2022-12-19T09:36:00;5.22;;;5.22;;
71176;SDS011;58877;51.992;4.504;2022-12-19T09:38:26;5.84;;;5.84;;
71176;SDS011;58877;51.992;4.504;2022-12-19T09:46:18;4.96;;;4.95;;
71176;SDS011;58877;51.992;4.504;2022-12-19T09:48:54;5.16;;;5.14;;
71176;SDS011;58877;51.992;4.504;2022-12-19T09:51:29;5.35;;;5.32;;
71176;SDS011;58877;51.992;4.504;2022-12-19T09:54:09;5.09;;;5.09;;
71176;SDS011;58877;51.992;4.504;2022-12-19T09:56:44;4.69;;;4.69;;
71176;SDS011;58877;51.992;4.504;2022-12-19T09:59:25;4.93;;;4.93;;
71176;SDS011;58877;51.992;4.504;2022-12-19T10:05:10;4.89;;;4.86;;
71176;SDS011;58877;51.992;4.504;2022-12-19T10:07:43;5.11;;;5.11;;
71176;SDS011;58877;51.992;4.504;2022-12-19T10:10:16;5.45;;;5.45;;
71176;SDS011;58877;51.992;4.504;2022-12-19T10:26:53;4.79;;;4.79;;
71176;SDS011;58877;51.992;4.504;2022-12-19T10:34:41;4.66;;;4.64;;
71176;SDS011;58877;51.992;4.504;2022-12-19T10:37:13;4.78;;;4.77;;
71176;SDS011;58877;51.992;4.504;2022-12-19T10:39:58;5.09;;;5.09;;
71176;SDS011;58877;51.992;4.504;2022-12-19T10:45:19;4.80;;;4.79;;
71176;SDS011;58877;51.992;4.504;2022-12-19T10:47:46;4.97;;;4.96;;
71176;SDS011;58877;51.992;4.504;2022-12-19T10:50:16;4.56;;;4.55;;
71176;SDS011;58877;51.992;4.504;2022-12-19T10:52:47;4.79;;;4.79;;
71176;SDS011;58877;51.992;4.504;2022-12-19T10:57:58;4.51;;;4.51;;
71176;SDS011;58877;51.992;4.504;2022-12-19T11:00:34;4.57;;;4.57;;
71176;SDS011;58877;51.992;4.504;2022-12-19T11:03:18;4.45;;;4.44;;
71176;SDS011;58877;51.992;4.504;2022-12-19T11:05:48;4.75;;;4.75;;
71176;SDS011;58877;51.992;4.504;2022-12-19T11:08:22;4.55;;;4.55;;
71176;SDS011;58877;51.992;4.504;2022-12-19T11:10:52;4.36;;;4.36;;
71176;SDS011;58877;51.992;4.504;2022-12-19T11:15:57;4.79;;;4.79;;
71176;SDS011;58877;51.992;4.504;2022-12-19T11:18:32;4.69;;;4.69;;
71176;SDS011;58877;51.992;4.504;2022-12-19T11:23:41;4.19;;;4.19;;
71176;SDS011;58877;51.992;4.504;2022-12-19T11:29:04;4.57;;;4.55;;
71176;SDS011;58877;51.992;4.504;2022-12-19T11:31:44;4.50;;;4.50;;
71176;SDS011;58877;51.992;4.504;2022-12-19T11:34:13;4.82;;;4.82;;
71176;SDS011;58877;51.992;4.504;2022-12-19T11:47:50;4.57;;;4.57;;
71176;SDS011;58877;51.992;4.504;2022-12-19T11:50:49;4.81;;;4.81;;
71176;SDS011;58877;51.992;4.504;2022-12-19T11:53:28;4.89;;;4.89;;
71176;SDS011;58877;51.992;4.504;2022-12-19T11:56:02;4.91;;;4.91;;
71176;SDS011;58877;51.992;4.504;2022-12-19T11:58:41;4.92;;;4.92;;
71176;SDS011;58877;51.992;4.504;2022-12-19T12:07:11;4.84;;;4.84;;
71176;SDS011;58877;51.992;4.504;2022-12-19T12:12:18;4.89;;;4.89;;
71176;SDS011;58877;51.992;4.504;2022-12-19T12:17:46;4.38;;;4.38;;
71176;SDS011;58877;51.992;4.504;2022-12-19T12:25:51;4.63;;;4.62;;
71176;SDS011;58877;51.992;4.504;2022-12-19T12:28:32;4.55;;;4.52;;
71176;SDS011;58877;51.992;4.504;2022-12-19T12:36:47;4.29;;;4.29;;
71176;SDS011;58877;51.992;4.504;2022-12-19T12:44:56;4.55;;;4.55;;
71176;SDS011;58877;51.992;4.504;2022-12-19T12:47:27;4.28;;;4.25;;
71176;SDS011;58877;51.992;4.504;2022-12-19T12:49:56;4.52;;;4.52;;
71176;SDS011;58877;51.992;4.504;2022-12-19T12:52:33;4.40;;;4.40;;
71176;SDS011;58877;51.992;4.504;2022-12-19T12:55:02;4.52;;;4.52;;
71176;SDS011;58877;51.992;4.504;2022-12-19T12:57:36;4.41;;;4.41;;
71176;SDS011;58877;51.992;4.504;2022-12-19T13:02:37;4.41;;;4.41;;
71176;SDS011;58877;51.992;4.504;2022-12-19T13:05:14;4.35;;;4.33;;
71176;SDS011;58877;51.992;4.504;2022-12-19T13:07:51;4.38;;;4.37;;
71176;SDS011;58877;51.992;4.504;2022-12-19T13:10:30;4.31;;;4.30;;
71176;SDS011;58877;51.992;4.504;2022-12-19T13:13:01;4.09;;;4.09;;
71176;SDS011;58877;51.992;4.504;2022-12-19T13:15:31;4.52;;;4.52;;
71176;SDS011;58877;51.992;4.504;2022-12-19T13:18:08;4.21;;;4.19;;
71176;SDS011;58877;51.992;4.504;2022-12-19T13:20:53;4.15;;;4.13;;
71176;SDS011;58877;51.992;4.504;2022-12-19T13:25:57;4.36;;;4.36;;
71176;SDS011;58877;51.992;4.504;2022-12-19T13:39:36;4.28;;;4.28;;
71176;SDS011;58877;51.992;4.504;2022-12-19T13:42:14;3.82;;;3.82;;
71176;SDS011;58877;51.992;4.504;2022-12-19T13:45:03;3.76;;;3.76;;
71176;SDS011;58877;51.992;4.504;2022-12-19T13:47:37;4.08;;;4.08;;
71176;SDS011;58877;51.992;4.504;2022-12-19T13:52:54;3.71;;;3.71;;
71176;SDS011;58877;51.992;4.504;2022-12-19T13:55:20;3.73;;;3.73;;
71176;SDS011;58877;51.992;4.504;2022-12-19T13:57:47;4.25;;;4.25;;
71176;SDS011;58877;51.992;4.504;2022-12-19T14:00:18;3.72;;;3.72;;
71176;SDS011;58877;51.992;4.504;2022-12-19T14:02:54;3.88;;;3.88;;
71176;SDS011;58877;51.992;4.504;2022-12-19T14:05:28;3.44;;;3.42;;
71176;SDS011;58877;51.992;4.504;2022-12-19T14:07:58;3.73;;;3.72;;
71176;SDS011;58877;51.992;4.504;2022-12-19T14:10:31;3.64;;;3.60;;
71176;SDS011;58877;51.992;4.504;2022-12-19T14:12:59;3.74;;;3.71;;
71176;SDS011;58877;51.992;4.504;2022-12-19T14:15:48;3.80;;;3.80;;
71176;SDS011;58877;51.992;4.504;2022-12-19T14:18:18;3.37;;;3.37;;
71176;SDS011;58877;51.992;4.504;2022-12-19T14:20:46;3.65;;;3.65;;
71176;SDS011;58877;51.992;4.504;2022-12-19T14:23:14;3.68;;;3.68;;
71176;SDS011;58877;51.992;4.504;2022-12-19T14:25:47;3.55;;;3.55;;
71176;SDS011;58877;51.992;4.504;2022-12-19T14:28:18;3.41;;;3.41;;
71176;SDS011;58877;51.992;4.504;2022-12-19T14:31:04;3.72;;;3.71;;
71176;SDS011;58877;51.992;4.504;2022-12-19T14:33:37;3.38;;;3.38;;
71176;SDS011;58877;51.992;4.504;2022-12-19T14:36:09;4.41;;;4.41;;
71176;SDS011;58877;51.992;4.504;2022-12-19T14:38:35;4.01;;;4.01;;
71176;SDS011;58877;51.992;4.504;2022-12-19T14:41:03;3.39;;;3.39;;
71176;SDS011;58877;51.992;4.504;2022-12-19T14:43:29;3.70;;;3.70;;
71176;SDS011;58877;51.992;4.504;2022-12-19T14:56:49;3.40;;;3.40;;
71176;SDS011;58877;51.992;4.504;2022-12-19T14:59:42;3.53;;;3.53;;
71176;SDS011;58877;51.992;4.504;2022-12-19T15:02:29;3.00;;;2.98;;
71176;SDS011;58877;51.992;4.504;2022-12-19T15:05:01;3.66;;;3.62;;
71176;SDS011;58877;51.992;4.504;2022-12-19T15:07:31;3.59;;;3.57;;
71176;SDS011;58877;51.992;4.504;2022-12-19T15:09:59;3.56;;;3.54;;
71176;SDS011;58877;51.992;4.504;2022-12-19T15:12:33;3.30;;;3.28;;
71176;SDS011;58877;51.992;4.504;2022-12-19T15:15:43;3.45;;;3.45;;
71176;SDS011;58877;51.992;4.504;2022-12-19T15:20:50;3.80;;;3.77;;
71176;SDS011;58877;51.992;4.504;2022-12-19T15:23:17;3.54;;;3.53;;
71176;SDS011;58877;51.992;4.504;2022-12-19T15:25:45;3.75;;;3.75;;
71176;SDS011;58877;51.992;4.504;2022-12-19T15:28:12;3.69;;;3.68;;
71176;SDS011;58877;51.992;4.504;2022-12-19T15:30:41;3.53;;;3.53;;
71176;SDS011;58877;51.992;4.504;2022-12-19T15:33:13;3.92;;;3.91;;
71176;SDS011;58877;51.992;4.504;2022-12-19T15:35:50;3.77;;;3.77;;
71176;SDS011;58877;51.992;4.504;2022-12-19T15:38:16;4.32;;;4.32;;
71176;SDS011;58877;51.992;4.504;2022-12-19T15:40:41;3.71;;;3.71;;
71176;SDS011;58877;51.992;4.504;2022-12-19T15:43:12;3.80;;;3.80;;
71176;SDS011;58877;51.992;4.504;2022-12-19T15:45:46;3.80;;;3.80;;
71176;SDS011;58877;51.992;4.504;2022-12-19T15:48:19;3.84;;;3.84;;
71176;SDS011;58877;51.992;4.504;2022-12-19T15:50:45;3.83;;;3.82;;
71176;SDS011;58877;51.992;4.504;2022-12-19T15:53:19;4.07;;;4.06;;
71176;SDS011;58877;51.992;4.504;2022-12-19T15:55:51;3.87;;;3.87;;
71176;SDS011;58877;51.992;4.504;2022-12-19T15:58:19;3.99;;;3.99;;
71176;SDS011;58877;51.992;4.504;2022-12-19T16:00:50;3.76;;;3.76;;
71176;SDS011;58877;51.992;4.504;2022-12-19T16:03:20;3.46;;;3.46;;
71176;SDS011;58877;51.992;4.504;2022-12-19T16:05:47;3.74;;;3.74;;
71176;SDS011;58877;51.992;4.504;2022-12-19T16:08:15;3.88;;;3.88;;
71176;SDS011;58877;51.992;4.504;2022-12-19T16:10:44;3.80;;;3.79;;
71176;SDS011;58877;51.992;4.504;2022-12-19T16:13:21;3.29;;;3.29;;
71176;SDS011;58877;51.992;4.504;2022-12-19T16:15:49;3.57;;;3.56;;
71176;SDS011;58877;51.992;4.504;2022-12-19T16:18:17;3.79;;;3.79;;
71176;SDS011;58877;51.992;4.504;2022-12-19T16:20:47;3.51;;;3.51;;
71176;SDS011;58877;51.992;4.504;2022-12-19T16:23:16;3.62;;;3.62;;
71176;SDS011;58877;51.992;4.504;2022-12-19T16:25:46;3.49;;;3.49;;
71176;SDS011;58877;51.992;4.504;2022-12-19T16:28:27;3.75;;;3.74;;
71176;SDS011;58877;51.992;4.504;2022-12-19T16:30:56;3.74;;;3.72;;
71176;SDS011;58877;51.992;4.504;2022-12-19T16:33:26;4.19;;;4.17;;
71176;SDS011;58877;51.992;4.504;2022-12-19T16:35:55;4.25;;;4.25;;
71176;SDS011;58877;51.992;4.504;2022-12-19T16:38:21;3.69;;;3.68;;
71176;SDS011;58877;51.992;4.504;2022-12-19T16:40:48;3.51;;;3.51;;
71176;SDS011;58877;51.992;4.504;2022-12-19T16:43:36;3.64;;;3.64;;
71176;SDS011;58877;51.992;4.504;2022-12-19T16:46:06;4.03;;;4.03;;
71176;SDS011;58877;51.992;4.504;2022-12-19T16:48:36;3.94;;;3.93;;
71176;SDS011;58877;51.992;4.504;2022-12-19T16:51:02;5.28;;;5.25;;
71176;SDS011;58877;51.992;4.504;2022-12-19T16:53:28;5.39;;;5.32;;
71176;SDS011;58877;51.992;4.504;2022-12-19T16:55:55;4.62;;;4.53;;
71176;SDS011;58877;51.992;4.504;2022-12-19T16:58:24;4.27;;;4.22;;
71176;SDS011;58877;51.992;4.504;2022-12-19T17:00:56;4.21;;;4.19;;
71176;SDS011;58877;51.992;4.504;2022-12-19T17:03:33;3.86;;;3.85;;
71176;SDS011;58877;51.992;4.504;2022-12-19T17:06:07;4.06;;;4.04;;
71176;SDS011;58877;51.992;4.504;2022-12-19T17:08:37;4.05;;;4.02;;
71176;SDS011;58877;51.992;4.504;2022-12-19T17:11:02;4.00;;;4.00;;
71176;SDS011;58877;51.992;4.504;2022-12-19T17:13:29;3.93;;;3.92;;
71176;SDS011;58877;51.992;4.504;2022-12-19T17:15:55;4.42;;;4.41;;
71176;SDS011;58877;51.992;4.504;2022-12-19T17:18:33;3.73;;;3.72;;
71176;SDS011;58877;51.992;4.504;2022-12-19T17:21:01;4.34;;;4.34;;
71176;SDS011;58877;51.992;4.504;2022-12-19T17:23:28;4.12;;;4.12;;
71176;SDS011;58877;51.992;4.504;2022-12-19T17:25:57;3.83;;;3.83;;
71176;SDS011;58877;51.992;4.504;2022-12-19T17:28:24;3.83;;;3.83;;
71176;SDS011;58877;51.992;4.504;2022-12-19T17:30:52;3.55;;;3.55;;